sensor_id;sensor_type;location;lat;lon;timestamp;temperature;humidity
12125;DHT22;6126;57.908;16.490;2023-05-10T00:01:11;7.00;68.30
12125;DHT22;6126;57.908;16.490;2023-05-10T00:03:37;6.90;68.40
12125;DHT22;6126;57.908;16.490;2023-05-10T00:06:03;6.90;68.60
12125;DHT22;6126;57.908;16.490;2023-05-10T00:08:29;6.90;68.80
12125;DHT22;6126;57.908;16.490;2023-05-10T00:10:55;6.70;68.90
12125;DHT22;6126;57.908;16.490;2023-05-10T00:13:21;6.60;68.90
12125;DHT22;6126;57.908;16.490;2023-05-10T00:15:47;6.60;69.20
12125;DHT22;6126;57.908;16.490;2023-05-10T00:18:13;6.70;69.50
12125;DHT22;6126;57.908;16.490;2023-05-10T00:20:39;6.60;69.50
12125;DHT22;6126;57.908;16.490;2023-05-10T00:23:05;6.40;69.50
12125;DHT22;6126;57.908;16.490;2023-05-10T00:25:31;6.50;69.90
12125;DHT22;6126;57.908;16.490;2023-05-10T00:27:57;6.40;69.40
12125;DHT22;6126;57.908;16.490;2023-05-10T00:30:23;6.40;70.10
12125;DHT22;6126;57.908;16.490;2023-05-10T00:32:49;6.30;70.30
12125;DHT22;6126;57.908;16.490;2023-05-10T00:35:15;6.20;70.40
12125;DHT22;6126;57.908;16.490;2023-05-10T00:37:41;6.40;70.80
12125;DHT22;6126;57.908;16.490;2023-05-10T00:40:08;6.40;70.90
12125;DHT22;6126;57.908;16.490;2023-05-10T00:42:34;6.40;71.10
12125;DHT22;6126;57.908;16.490;2023-05-10T00:45:00;6.30;71.20
12125;DHT22;6126;57.908;16.490;2023-05-10T00:47:26;6.20;71.20
12125;DHT22;6126;57.908;16.490;2023-05-10T00:49:52;6.20;71.50
12125;DHT22;6126;57.908;16.490;2023-05-10T00:52:18;6.20;71.60
12125;DHT22;6126;57.908;16.490;2023-05-10T00:54:44;6.20;71.80
12125;DHT22;6126;57.908;16.490;2023-05-10T00:57:10;6.20;72.00
12125;DHT22;6126;57.908;16.490;2023-05-10T00:59:36;5.80;71.80
12125;DHT22;6126;57.908;16.490;2023-05-10T01:02:02;6.00;72.20
12125;DHT22;6126;57.908;16.490;2023-05-10T01:04:29;5.80;72.20
12125;DHT22;6126;57.908;16.490;2023-05-10T01:06:55;5.90;72.60
12125;DHT22;6126;57.908;16.490;2023-05-10T01:09:22;5.60;72.30
12125;DHT22;6126;57.908;16.490;2023-05-10T01:11:49;6.00;73.00
12125;DHT22;6126;57.908;16.490;2023-05-10T01:14:18;5.80;72.80
12125;DHT22;6126;57.908;16.490;2023-05-10T01:16:45;5.70;72.90
12125;DHT22;6126;57.908;16.490;2023-05-10T01:19:24;5.70;73.10
12125;DHT22;6126;57.908;16.490;2023-05-10T01:31:03;5.50;73.50
12125;DHT22;6126;57.908;16.490;2023-05-10T01:38:49;5.50;74.00
12125;DHT22;6126;57.908;16.490;2023-05-10T01:41:25;5.50;74.20
12125;DHT22;6126;57.908;16.490;2023-05-10T01:47:05;5.40;74.40
12125;DHT22;6126;57.908;16.490;2023-05-10T01:49:43;5.40;74.60
12125;DHT22;6126;57.908;16.490;2023-05-10T01:52:16;5.30;74.50
12125;DHT22;6126;57.908;16.490;2023-05-10T01:54:55;5.30;74.60
12125;DHT22;6126;57.908;16.490;2023-05-10T01:57:27;5.40;74.80
12125;DHT22;6126;57.908;16.490;2023-05-10T01:59:58;5.20;74.70
12125;DHT22;6126;57.908;16.490;2023-05-10T02:02:27;5.40;75.00
12125;DHT22;6126;57.908;16.490;2023-05-10T02:04:56;5.40;75.20
12125;DHT22;6126;57.908;16.490;2023-05-10T02:07:24;5.20;75.00
12125;DHT22;6126;57.908;16.490;2023-05-10T02:09:52;5.30;75.20
12125;DHT22;6126;57.908;16.490;2023-05-10T02:12:20;5.60;75.60
12125;DHT22;6126;57.908;16.490;2023-05-10T02:14:47;5.30;75.40
12125;DHT22;6126;57.908;16.490;2023-05-10T02:17:15;5.20;75.40
12125;DHT22;6126;57.908;16.490;2023-05-10T02:19:43;5.00;75.40
12125;DHT22;6126;57.908;16.490;2023-05-10T02:22:12;5.00;75.60
12125;DHT22;6126;57.908;16.490;2023-05-10T02:24:41;5.10;76.00
12125;DHT22;6126;57.908;16.490;2023-05-10T02:27:09;5.20;76.20
12125;DHT22;6126;57.908;16.490;2023-05-10T02:29:37;5.20;76.30
12125;DHT22;6126;57.908;16.490;2023-05-10T02:32:04;5.10;76.30
12125;DHT22;6126;57.908;16.490;2023-05-10T02:34:31;5.10;75.90
12125;DHT22;6126;57.908;16.490;2023-05-10T02:36:59;5.00;76.30
12125;DHT22;6126;57.908;16.490;2023-05-10T02:39:28;5.10;76.50
12125;DHT22;6126;57.908;16.490;2023-05-10T02:41:57;5.00;77.40
12125;DHT22;6126;57.908;16.490;2023-05-10T02:44:25;4.70;76.40
12125;DHT22;6126;57.908;16.490;2023-05-10T02:46:56;4.80;77.50
12125;DHT22;6126;57.908;16.490;2023-05-10T02:49:23;4.70;76.80
12125;DHT22;6126;57.908;16.490;2023-05-10T02:51:51;4.80;77.10
12125;DHT22;6126;57.908;16.490;2023-05-10T02:54:30;4.90;77.20
12125;DHT22;6126;57.908;16.490;2023-05-10T02:57:00;4.50;76.90
12125;DHT22;6126;57.908;16.490;2023-05-10T02:59:30;4.60;77.20
12125;DHT22;6126;57.908;16.490;2023-05-10T03:01:56;4.30;77.10
12125;DHT22;6126;57.908;16.490;2023-05-10T03:04:22;4.50;77.50
12125;DHT22;6126;57.908;16.490;2023-05-10T03:06:48;4.50;77.70
12125;DHT22;6126;57.908;16.490;2023-05-10T03:09:14;4.30;77.60
12125;DHT22;6126;57.908;16.490;2023-05-10T03:11:49;4.60;78.00
12125;DHT22;6126;57.908;16.490;2023-05-10T03:20:20;4.20;77.80
12125;DHT22;6126;57.908;16.490;2023-05-10T03:25:43;4.40;78.30
12125;DHT22;6126;57.908;16.490;2023-05-10T03:28:12;4.40;78.40
12125;DHT22;6126;57.908;16.490;2023-05-10T03:30:42;4.30;78.30
12125;DHT22;6126;57.908;16.490;2023-05-10T03:33:09;4.20;78.40
12125;DHT22;6126;57.908;16.490;2023-05-10T03:35:35;4.30;78.60
12125;DHT22;6126;57.908;16.490;2023-05-10T03:38:01;4.10;78.40
12125;DHT22;6126;57.908;16.490;2023-05-10T03:40:27;4.10;78.40
12125;DHT22;6126;57.908;16.490;2023-05-10T03:43:00;4.10;78.50
12125;DHT22;6126;57.908;16.490;2023-05-10T03:45:26;4.20;78.60
12125;DHT22;6126;57.908;16.490;2023-05-10T03:47:52;4.20;78.70
12125;DHT22;6126;57.908;16.490;2023-05-10T03:50:19;3.90;78.60
12125;DHT22;6126;57.908;16.490;2023-05-10T03:52:46;3.90;78.70
12125;DHT22;6126;57.908;16.490;2023-05-10T03:55:12;3.90;78.80
12125;DHT22;6126;57.908;16.490;2023-05-10T03:57:38;3.80;78.70
12125;DHT22;6126;57.908;16.490;2023-05-10T04:00:04;3.90;78.70
12125;DHT22;6126;57.908;16.490;2023-05-10T04:02:30;4.20;79.00
12125;DHT22;6126;57.908;16.490;2023-05-10T04:04:56;4.10;79.00
12125;DHT22;6126;57.908;16.490;2023-05-10T04:07:22;4.20;79.00
12125;DHT22;6126;57.908;16.490;2023-05-10T04:09:48;4.30;79.20
12125;DHT22;6126;57.908;16.490;2023-05-10T04:12:14;4.10;79.00
12125;DHT22;6126;57.908;16.490;2023-05-10T04:14:40;4.20;79.30
12125;DHT22;6126;57.908;16.490;2023-05-10T04:17:06;4.10;79.20
12125;DHT22;6126;57.908;16.490;2023-05-10T04:19:32;4.30;79.50
12125;DHT22;6126;57.908;16.490;2023-05-10T04:21:58;4.40;79.60
12125;DHT22;6126;57.908;16.490;2023-05-10T04:24:25;5.10;79.50
12125;DHT22;6126;57.908;16.490;2023-05-10T04:26:51;5.90;78.60
12125;DHT22;6126;57.908;16.490;2023-05-10T04:29:17;7.20;77.00
12125;DHT22;6126;57.908;16.490;2023-05-10T04:31:42;8.00;75.00
12125;DHT22;6126;57.908;16.490;2023-05-10T04:34:08;8.60;73.90
12125;DHT22;6126;57.908;16.490;2023-05-10T04:36:34;8.20;73.00
12125;DHT22;6126;57.908;16.490;2023-05-10T04:39:03;8.20;73.50
12125;DHT22;6126;57.908;16.490;2023-05-10T04:41:30;7.40;73.80
12125;DHT22;6126;57.908;16.490;2023-05-10T04:43:56;7.10;75.10
12125;DHT22;6126;57.908;16.490;2023-05-10T04:46:22;7.10;75.50
12125;DHT22;6126;57.908;16.490;2023-05-10T04:48:48;7.10;76.70
12125;DHT22;6126;57.908;16.490;2023-05-10T04:51:14;7.00;76.90
12125;DHT22;6126;57.908;16.490;2023-05-10T04:53:39;7.10;77.00
12125;DHT22;6126;57.908;16.490;2023-05-10T04:56:06;6.80;76.90
12125;DHT22;6126;57.908;16.490;2023-05-10T04:58:32;7.00;77.20
12125;DHT22;6126;57.908;16.490;2023-05-10T05:01:05;7.20;78.20
12125;DHT22;6126;57.908;16.490;2023-05-10T05:03:32;7.40;77.40
12125;DHT22;6126;57.908;16.490;2023-05-10T05:05:58;7.80;77.00
12125;DHT22;6126;57.908;16.490;2023-05-10T05:08:24;8.00;77.40
12125;DHT22;6126;57.908;16.490;2023-05-10T05:10:51;8.20;76.90
12125;DHT22;6126;57.908;16.490;2023-05-10T05:13:16;8.10;76.50
12125;DHT22;6126;57.908;16.490;2023-05-10T05:15:42;8.50;76.70
12125;DHT22;6126;57.908;16.490;2023-05-10T05:18:08;8.20;76.20
12125;DHT22;6126;57.908;16.490;2023-05-10T05:20:34;8.50;76.40
12125;DHT22;6126;57.908;16.490;2023-05-10T05:23:00;8.60;76.40
12125;DHT22;6126;57.908;16.490;2023-05-10T05:25:26;9.00;76.40
12125;DHT22;6126;57.908;16.490;2023-05-10T05:27:52;9.20;77.10
12125;DHT22;6126;57.908;16.490;2023-05-10T05:30:18;9.60;76.10
12125;DHT22;6126;57.908;16.490;2023-05-10T05:32:44;9.60;75.60
12125;DHT22;6126;57.908;16.490;2023-05-10T05:35:12;9.70;75.40
12125;DHT22;6126;57.908;16.490;2023-05-10T05:37:38;10.00;74.20
12125;DHT22;6126;57.908;16.490;2023-05-10T05:40:05;10.00;74.00
12125;DHT22;6126;57.908;16.490;2023-05-10T05:42:31;10.40;74.10
12125;DHT22;6126;57.908;16.490;2023-05-10T05:44:58;10.40;73.90
12125;DHT22;6126;57.908;16.490;2023-05-10T05:47:24;10.70;73.90
12125;DHT22;6126;57.908;16.490;2023-05-10T05:49:50;10.60;73.60
12125;DHT22;6126;57.908;16.490;2023-05-10T05:52:16;10.80;73.60
12125;DHT22;6126;57.908;16.490;2023-05-10T05:54:42;10.90;73.60
12125;DHT22;6126;57.908;16.490;2023-05-10T05:57:08;10.80;73.30
12125;DHT22;6126;57.908;16.490;2023-05-10T05:59:34;11.00;73.40
12125;DHT22;6126;57.908;16.490;2023-05-10T06:02:00;11.00;73.20
12125;DHT22;6126;57.908;16.490;2023-05-10T06:04:26;11.00;73.10
12125;DHT22;6126;57.908;16.490;2023-05-10T06:06:52;11.20;73.10
12125;DHT22;6126;57.908;16.490;2023-05-10T06:09:18;11.20;72.90
12125;DHT22;6126;57.908;16.490;2023-05-10T06:11:44;11.40;72.80
12125;DHT22;6126;57.908;16.490;2023-05-10T06:14:10;11.20;72.30
12125;DHT22;6126;57.908;16.490;2023-05-10T06:16:36;11.40;72.40
12125;DHT22;6126;57.908;16.490;2023-05-10T06:19:02;11.70;72.40
12125;DHT22;6126;57.908;16.490;2023-05-10T06:21:28;11.80;72.40
12125;DHT22;6126;57.908;16.490;2023-05-10T06:23:55;12.00;72.50
12125;DHT22;6126;57.908;16.490;2023-05-10T06:26:21;11.80;72.10
12125;DHT22;6126;57.908;16.490;2023-05-10T06:28:47;12.00;72.20
12125;DHT22;6126;57.908;16.490;2023-05-10T06:31:13;11.80;71.80
12125;DHT22;6126;57.908;16.490;2023-05-10T06:33:39;12.00;71.90
12125;DHT22;6126;57.908;16.490;2023-05-10T06:36:05;12.20;71.90
12125;DHT22;6126;57.908;16.490;2023-05-10T06:38:31;11.90;71.50
12125;DHT22;6126;57.908;16.490;2023-05-10T06:40:57;12.30;71.80
12125;DHT22;6126;57.908;16.490;2023-05-10T06:43:23;12.30;71.60
12125;DHT22;6126;57.908;16.490;2023-05-10T06:45:50;12.30;71.40
12125;DHT22;6126;57.908;16.490;2023-05-10T06:48:16;12.40;71.20
12125;DHT22;6126;57.908;16.490;2023-05-10T06:50:42;12.50;71.20
12125;DHT22;6126;57.908;16.490;2023-05-10T06:53:08;12.30;70.80
12125;DHT22;6126;57.908;16.490;2023-05-10T06:55:34;12.80;71.20
12125;DHT22;6126;57.908;16.490;2023-05-10T06:57:59;12.70;70.90
12125;DHT22;6126;57.908;16.490;2023-05-10T07:00:25;12.70;70.80
12125;DHT22;6126;57.908;16.490;2023-05-10T07:02:51;12.70;70.70
12125;DHT22;6126;57.908;16.490;2023-05-10T07:05:17;12.70;70.50
12125;DHT22;6126;57.908;16.490;2023-05-10T07:07:43;13.00;70.60
12125;DHT22;6126;57.908;16.490;2023-05-10T07:10:09;12.90;70.40
12125;DHT22;6126;57.908;16.490;2023-05-10T07:12:35;12.90;70.20
12125;DHT22;6126;57.908;16.490;2023-05-10T07:15:01;13.00;70.10
12125;DHT22;6126;57.908;16.490;2023-05-10T07:17:28;13.10;70.00
12125;DHT22;6126;57.908;16.490;2023-05-10T07:19:54;13.30;69.90
12125;DHT22;6126;57.908;16.490;2023-05-10T07:22:20;13.40;69.70
12125;DHT22;6126;57.908;16.490;2023-05-10T07:24:46;13.30;69.30
12125;DHT22;6126;57.908;16.490;2023-05-10T07:27:12;13.50;69.20
12125;DHT22;6126;57.908;16.490;2023-05-10T07:29:38;13.50;69.00
12125;DHT22;6126;57.908;16.490;2023-05-10T07:32:04;13.60;68.80
12125;DHT22;6126;57.908;16.490;2023-05-10T07:34:31;13.70;68.60
12125;DHT22;6126;57.908;16.490;2023-05-10T07:36:58;13.90;68.50
12125;DHT22;6126;57.908;16.490;2023-05-10T07:39:25;14.10;68.40
12125;DHT22;6126;57.908;16.490;2023-05-10T07:41:52;14.10;68.00
12125;DHT22;6126;57.908;16.490;2023-05-10T07:44:18;14.10;67.60
12125;DHT22;6126;57.908;16.490;2023-05-10T07:46:46;14.50;67.60
12125;DHT22;6126;57.908;16.490;2023-05-10T07:49:12;14.60;67.30
12125;DHT22;6126;57.908;16.490;2023-05-10T07:51:38;14.50;66.80
12125;DHT22;6126;57.908;16.490;2023-05-10T07:54:04;14.80;66.70
12125;DHT22;6126;57.908;16.490;2023-05-10T07:56:32;14.90;66.40
12125;DHT22;6126;57.908;16.490;2023-05-10T07:59:03;14.80;65.90
12125;DHT22;6126;57.908;16.490;2023-05-10T08:01:31;15.20;65.80
12125;DHT22;6126;57.908;16.490;2023-05-10T08:03:58;15.30;65.50
12125;DHT22;6126;57.908;16.490;2023-05-10T08:06:24;15.40;65.20
12125;DHT22;6126;57.908;16.490;2023-05-10T08:08:52;15.40;64.70
12125;DHT22;6126;57.908;16.490;2023-05-10T08:11:20;15.60;64.50
12125;DHT22;6126;57.908;16.490;2023-05-10T08:13:47;15.60;64.10
12125;DHT22;6126;57.908;16.490;2023-05-10T08:16:14;15.80;63.90
12125;DHT22;6126;57.908;16.490;2023-05-10T08:18:41;16.00;63.80
12125;DHT22;6126;57.908;16.490;2023-05-10T08:21:07;16.10;63.60
12125;DHT22;6126;57.908;16.490;2023-05-10T08:23:33;16.00;63.00
12125;DHT22;6126;57.908;16.490;2023-05-10T08:25:59;16.10;62.80
12125;DHT22;6126;57.908;16.490;2023-05-10T08:28:25;16.30;62.60
12125;DHT22;6126;57.908;16.490;2023-05-10T08:30:51;16.60;62.60
12125;DHT22;6126;57.908;16.490;2023-05-10T08:33:18;16.60;62.20
12125;DHT22;6126;57.908;16.490;2023-05-10T08:35:44;16.60;61.80
12125;DHT22;6126;57.908;16.490;2023-05-10T08:38:10;16.70;61.60
12125;DHT22;6126;57.908;16.490;2023-05-10T08:40:43;16.90;61.50
12125;DHT22;6126;57.908;16.490;2023-05-10T08:43:11;17.00;61.40
12125;DHT22;6126;57.908;16.490;2023-05-10T08:45:41;16.90;61.00
12125;DHT22;6126;57.908;16.490;2023-05-10T08:48:11;17.00;60.90
12125;DHT22;6126;57.908;16.490;2023-05-10T08:50:39;17.00;60.60
12125;DHT22;6126;57.908;16.490;2023-05-10T08:53:13;17.00;60.40
12125;DHT22;6126;57.908;16.490;2023-05-10T08:55:41;17.10;60.20
12125;DHT22;6126;57.908;16.490;2023-05-10T08:58:08;17.40;60.20
12125;DHT22;6126;57.908;16.490;2023-05-10T09:00:35;17.20;59.80
12125;DHT22;6126;57.908;16.490;2023-05-10T09:03:04;17.40;59.80
12125;DHT22;6126;57.908;16.490;2023-05-10T09:05:31;17.60;59.60
12125;DHT22;6126;57.908;16.490;2023-05-10T09:07:57;17.30;59.30
12125;DHT22;6126;57.908;16.490;2023-05-10T09:10:26;17.40;59.20
12125;DHT22;6126;57.908;16.490;2023-05-10T09:12:56;17.30;59.10
12125;DHT22;6126;57.908;16.490;2023-05-10T09:15:23;17.40;59.00
12125;DHT22;6126;57.908;16.490;2023-05-10T09:17:49;17.60;59.10
12125;DHT22;6126;57.908;16.490;2023-05-10T09:20:15;17.60;58.90
12125;DHT22;6126;57.908;16.490;2023-05-10T09:22:43;17.40;58.60
12125;DHT22;6126;57.908;16.490;2023-05-10T09:25:10;17.40;58.30
12125;DHT22;6126;57.908;16.490;2023-05-10T09:27:41;17.60;58.30
12125;DHT22;6126;57.908;16.490;2023-05-10T09:30:15;17.50;58.00
12125;DHT22;6126;57.908;16.490;2023-05-10T09:33:00;17.70;58.00
12125;DHT22;6126;57.908;16.490;2023-05-10T09:35:30;17.90;57.90
12125;DHT22;6126;57.908;16.490;2023-05-10T09:38:00;17.80;57.70
12125;DHT22;6126;57.908;16.490;2023-05-10T09:40:29;17.50;57.60
12125;DHT22;6126;57.908;16.490;2023-05-10T09:43:08;17.40;57.50
12125;DHT22;6126;57.908;16.490;2023-05-10T09:45:36;17.70;57.60
12125;DHT22;6126;57.908;16.490;2023-05-10T09:48:03;17.60;57.30
12125;DHT22;6126;57.908;16.490;2023-05-10T09:50:30;18.00;57.50
12125;DHT22;6126;57.908;16.490;2023-05-10T09:52:57;17.90;57.30
12125;DHT22;6126;57.908;16.490;2023-05-10T09:55:39;17.90;57.20
12125;DHT22;6126;57.908;16.490;2023-05-10T09:58:09;17.70;57.50
12125;DHT22;6126;57.908;16.490;2023-05-10T10:00:43;17.70;56.60
12125;DHT22;6126;57.908;16.490;2023-05-10T10:03:28;17.70;56.60
12125;DHT22;6126;57.908;16.490;2023-05-10T10:05:55;17.90;56.80
12125;DHT22;6126;57.908;16.490;2023-05-10T10:08:25;17.90;56.80
12125;DHT22;6126;57.908;16.490;2023-05-10T10:10:51;17.70;56.50
12125;DHT22;6126;57.908;16.490;2023-05-10T10:13:17;17.80;56.30
12125;DHT22;6126;57.908;16.490;2023-05-10T10:15:43;18.00;56.40
12125;DHT22;6126;57.908;16.490;2023-05-10T10:18:13;18.00;56.60
12125;DHT22;6126;57.908;16.490;2023-05-10T10:20:41;18.00;56.40
12125;DHT22;6126;57.908;16.490;2023-05-10T10:23:08;17.90;56.30
12125;DHT22;6126;57.908;16.490;2023-05-10T10:25:34;17.80;56.10
12125;DHT22;6126;57.908;16.490;2023-05-10T10:31:12;17.50;55.80
12125;DHT22;6126;57.908;16.490;2023-05-10T10:34:07;17.70;55.80
12125;DHT22;6126;57.908;16.490;2023-05-10T10:36:44;17.60;55.50
12125;DHT22;6126;57.908;16.490;2023-05-10T10:39:12;17.50;55.40
12125;DHT22;6126;57.908;16.490;2023-05-10T10:41:49;17.50;55.40
12125;DHT22;6126;57.908;16.490;2023-05-10T10:52:28;17.70;55.00
12125;DHT22;6126;57.908;16.490;2023-05-10T10:57:49;17.30;54.50
12125;DHT22;6126;57.908;16.490;2023-05-10T11:00:29;17.50;54.60
12125;DHT22;6126;57.908;16.490;2023-05-10T11:03:08;17.80;54.50
12125;DHT22;6126;57.908;16.490;2023-05-10T11:05:39;17.60;54.10
12125;DHT22;6126;57.908;16.490;2023-05-10T11:08:19;17.50;54.00
12125;DHT22;6126;57.908;16.490;2023-05-10T11:13:41;17.60;53.70
12125;DHT22;6126;57.908;16.490;2023-05-10T11:16:23;17.40;53.50
12125;DHT22;6126;57.908;16.490;2023-05-10T11:21:22;17.80;53.60
12125;DHT22;6126;57.908;16.490;2023-05-10T11:23:53;17.60;53.30
12125;DHT22;6126;57.908;16.490;2023-05-10T11:26:35;17.50;53.20
12125;DHT22;6126;57.908;16.490;2023-05-10T11:29:01;17.80;53.20
12125;DHT22;6126;57.908;16.490;2023-05-10T11:31:29;17.70;52.90
12125;DHT22;6126;57.908;16.490;2023-05-10T11:33:57;17.60;52.80
12125;DHT22;6126;57.908;16.490;2023-05-10T11:36:29;17.60;52.60
12125;DHT22;6126;57.908;16.490;2023-05-10T11:38:59;17.50;52.50
12125;DHT22;6126;57.908;16.490;2023-05-10T11:41:27;17.70;52.60
12125;DHT22;6126;57.908;16.490;2023-05-10T11:43:54;17.40;52.20
12125;DHT22;6126;57.908;16.490;2023-05-10T11:46:26;17.80;52.60
12125;DHT22;6126;57.908;16.490;2023-05-10T11:48:59;17.50;52.20
12125;DHT22;6126;57.908;16.490;2023-05-10T11:51:27;17.40;52.00
12125;DHT22;6126;57.908;16.490;2023-05-10T11:53:54;17.70;52.20
12125;DHT22;6126;57.908;16.490;2023-05-10T11:56:22;17.50;51.90
12125;DHT22;6126;57.908;16.490;2023-05-10T11:58:56;17.60;51.80
12125;DHT22;6126;57.908;16.490;2023-05-10T12:01:24;17.60;51.80
12125;DHT22;6126;57.908;16.490;2023-05-10T12:03:53;17.60;51.70
12125;DHT22;6126;57.908;16.490;2023-05-10T12:06:21;17.30;51.40
12125;DHT22;6126;57.908;16.490;2023-05-10T12:08:48;17.60;51.70
12125;DHT22;6126;57.908;16.490;2023-05-10T12:11:18;17.40;51.50
12125;DHT22;6126;57.908;16.490;2023-05-10T12:13:44;17.50;51.50
12125;DHT22;6126;57.908;16.490;2023-05-10T12:16:20;17.70;51.60
12125;DHT22;6126;57.908;16.490;2023-05-10T12:18:56;17.60;51.50
12125;DHT22;6126;57.908;16.490;2023-05-10T12:21:23;17.50;51.30
12125;DHT22;6126;57.908;16.490;2023-05-10T12:23:52;17.40;51.20
12125;DHT22;6126;57.908;16.490;2023-05-10T12:26:24;17.30;51.10
12125;DHT22;6126;57.908;16.490;2023-05-10T12:28:54;17.20;51.00
12125;DHT22;6126;57.908;16.490;2023-05-10T12:31:21;17.50;51.30
12125;DHT22;6126;57.908;16.490;2023-05-10T12:33:47;17.40;51.20
12125;DHT22;6126;57.908;16.490;2023-05-10T12:36:16;17.30;51.10
12125;DHT22;6126;57.908;16.490;2023-05-10T12:38:46;17.40;51.00
12125;DHT22;6126;57.908;16.490;2023-05-10T12:41:16;17.40;51.00
12125;DHT22;6126;57.908;16.490;2023-05-10T12:43:43;17.30;50.90
12125;DHT22;6126;57.908;16.490;2023-05-10T12:46:17;17.60;51.10
12125;DHT22;6126;57.908;16.490;2023-05-10T12:48:44;17.30;50.90
12125;DHT22;6126;57.908;16.490;2023-05-10T12:51:17;17.70;51.10
12125;DHT22;6126;57.908;16.490;2023-05-10T12:53:47;17.20;50.70
12125;DHT22;6126;57.908;16.490;2023-05-10T12:56:13;17.20;50.70
12125;DHT22;6126;57.908;16.490;2023-05-10T12:58:39;17.60;51.00
12125;DHT22;6126;57.908;16.490;2023-05-10T13:01:05;17.50;50.80
12125;DHT22;6126;57.908;16.490;2023-05-10T13:03:31;17.20;50.50
12125;DHT22;6126;57.908;16.490;2023-05-10T13:05:57;17.40;50.80
12125;DHT22;6126;57.908;16.490;2023-05-10T13:08:23;17.20;50.70
12125;DHT22;6126;57.908;16.490;2023-05-10T13:10:49;17.20;50.60
12125;DHT22;6126;57.908;16.490;2023-05-10T13:13:15;17.30;50.60
12125;DHT22;6126;57.908;16.490;2023-05-10T13:15:41;17.40;50.60
12125;DHT22;6126;57.908;16.490;2023-05-10T13:18:07;17.10;50.30
12125;DHT22;6126;57.908;16.490;2023-05-10T13:20:33;17.00;50.30
12125;DHT22;6126;57.908;16.490;2023-05-10T13:22:59;17.20;50.60
12125;DHT22;6126;57.908;16.490;2023-05-10T13:25:25;16.90;50.40
12125;DHT22;6126;57.908;16.490;2023-05-10T13:27:51;16.90;50.20
12125;DHT22;6126;57.908;16.490;2023-05-10T13:30:17;17.20;50.40
12125;DHT22;6126;57.908;16.490;2023-05-10T13:32:42;17.10;50.30
12125;DHT22;6126;57.908;16.490;2023-05-10T13:35:08;17.20;50.40
12125;DHT22;6126;57.908;16.490;2023-05-10T13:37:34;17.30;50.40
12125;DHT22;6126;57.908;16.490;2023-05-10T13:40:03;17.00;50.10
12125;DHT22;6126;57.908;16.490;2023-05-10T13:42:29;17.10;50.10
12125;DHT22;6126;57.908;16.490;2023-05-10T13:44:57;17.10;50.10
12125;DHT22;6126;57.908;16.490;2023-05-10T13:47:22;17.30;50.10
12125;DHT22;6126;57.908;16.490;2023-05-10T13:49:48;17.20;50.00
12125;DHT22;6126;57.908;16.490;2023-05-10T13:52:14;17.30;50.10
12125;DHT22;6126;57.908;16.490;2023-05-10T13:54:40;17.20;50.00
12125;DHT22;6126;57.908;16.490;2023-05-10T13:57:06;17.00;49.80
12125;DHT22;6126;57.908;16.490;2023-05-10T13:59:32;16.80;49.80
12125;DHT22;6126;57.908;16.490;2023-05-10T14:01:59;17.00;50.10
12125;DHT22;6126;57.908;16.490;2023-05-10T14:04:28;17.10;50.10
12125;DHT22;6126;57.908;16.490;2023-05-10T14:06:54;17.10;50.20
12125;DHT22;6126;57.908;16.490;2023-05-10T14:09:20;16.90;50.10
12125;DHT22;6126;57.908;16.490;2023-05-10T14:11:46;16.70;49.90
12125;DHT22;6126;57.908;16.490;2023-05-10T14:14:12;17.00;50.20
12125;DHT22;6126;57.908;16.490;2023-05-10T14:16:43;16.90;50.20
12125;DHT22;6126;57.908;16.490;2023-05-10T14:19:10;16.80;50.10
12125;DHT22;6126;57.908;16.490;2023-05-10T14:21:36;16.70;50.10
12125;DHT22;6126;57.908;16.490;2023-05-10T14:24:03;16.50;50.10
12125;DHT22;6126;57.908;16.490;2023-05-10T14:26:30;16.60;50.20
12125;DHT22;6126;57.908;16.490;2023-05-10T14:28:56;16.70;50.40
12125;DHT22;6126;57.908;16.490;2023-05-10T14:31:21;16.50;50.30
12125;DHT22;6126;57.908;16.490;2023-05-10T14:33:49;16.70;50.40
12125;DHT22;6126;57.908;16.490;2023-05-10T14:36:15;16.40;50.20
12125;DHT22;6126;57.908;16.490;2023-05-10T14:38:41;16.70;50.50
12125;DHT22;6126;57.908;16.490;2023-05-10T14:41:07;16.70;50.50
12125;DHT22;6126;57.908;16.490;2023-05-10T14:43:33;16.70;50.50
12125;DHT22;6126;57.908;16.490;2023-05-10T14:45:59;16.40;50.40
12125;DHT22;6126;57.908;16.490;2023-05-10T14:48:25;16.40;50.50
12125;DHT22;6126;57.908;16.490;2023-05-10T14:50:51;16.20;50.60
12125;DHT22;6126;57.908;16.490;2023-05-10T14:53:18;16.50;50.90
12125;DHT22;6126;57.908;16.490;2023-05-10T14:55:44;16.20;50.50
12125;DHT22;6126;57.908;16.490;2023-05-10T14:58:09;16.20;50.50
12125;DHT22;6126;57.908;16.490;2023-05-10T15:00:35;16.50;50.70
12125;DHT22;6126;57.908;16.490;2023-05-10T15:03:01;16.40;50.60
12125;DHT22;6126;57.908;16.490;2023-05-10T15:05:27;16.50;50.60
12125;DHT22;6126;57.908;16.490;2023-05-10T15:07:53;16.10;50.40
12125;DHT22;6126;57.908;16.490;2023-05-10T15:10:19;16.40;50.80
12125;DHT22;6126;57.908;16.490;2023-05-10T15:12:45;16.20;50.70
12125;DHT22;6126;57.908;16.490;2023-05-10T15:15:11;15.90;50.50
12125;DHT22;6126;57.908;16.490;2023-05-10T15:17:36;15.90;50.60
12125;DHT22;6126;57.908;16.490;2023-05-10T15:20:03;16.10;50.90
12125;DHT22;6126;57.908;16.490;2023-05-10T15:22:30;16.10;51.00
12125;DHT22;6126;57.908;16.490;2023-05-10T15:24:57;15.60;50.60
12125;DHT22;6126;57.908;16.490;2023-05-10T15:27:25;15.90;50.90
12125;DHT22;6126;57.908;16.490;2023-05-10T15:29:51;16.00;51.10
12125;DHT22;6126;57.908;16.490;2023-05-10T15:32:17;15.90;51.10
12125;DHT22;6126;57.908;16.490;2023-05-10T15:34:43;15.70;50.90
12125;DHT22;6126;57.908;16.490;2023-05-10T15:37:09;15.80;50.90
12125;DHT22;6126;57.908;16.490;2023-05-10T15:39:35;15.60;50.70
12125;DHT22;6126;57.908;16.490;2023-05-10T15:42:01;15.90;51.00
12125;DHT22;6126;57.908;16.490;2023-05-10T15:44:28;15.70;50.80
12125;DHT22;6126;57.908;16.490;2023-05-10T15:46:54;16.00;51.10
12125;DHT22;6126;57.908;16.490;2023-05-10T15:49:20;15.50;50.70
12125;DHT22;6126;57.908;16.490;2023-05-10T15:51:46;15.90;51.00
12125;DHT22;6126;57.908;16.490;2023-05-10T15:54:12;15.80;50.80
12125;DHT22;6126;57.908;16.490;2023-05-10T15:56:38;16.00;50.90
12125;DHT22;6126;57.908;16.490;2023-05-10T15:59:04;15.80;50.70
12125;DHT22;6126;57.908;16.490;2023-05-10T16:01:35;15.70;50.60
12125;DHT22;6126;57.908;16.490;2023-05-10T16:04:01;15.80;50.70
12125;DHT22;6126;57.908;16.490;2023-05-10T16:06:27;15.80;50.70
12125;DHT22;6126;57.908;16.490;2023-05-10T16:08:53;16.00;50.90
12125;DHT22;6126;57.908;16.490;2023-05-10T16:11:19;15.90;50.70
12125;DHT22;6126;57.908;16.490;2023-05-10T16:13:45;15.80;50.60
12125;DHT22;6126;57.908;16.490;2023-05-10T16:16:11;15.90;50.70
12125;DHT22;6126;57.908;16.490;2023-05-10T16:18:37;15.60;50.40
12125;DHT22;6126;57.908;16.490;2023-05-10T16:21:03;15.70;50.50
12125;DHT22;6126;57.908;16.490;2023-05-10T16:23:29;15.80;50.60